Aérodrome :
LOGIN :

S'inscrire | Disclaimer

   EN    FR    IT 

 










Légende :    VFR   VFR Marginal   IFR   IFR Intensif   IFR Très Intensif
Visi : 
Plafond : 
>= 8 km
>= 3000ft
5 à 8 km
1000 à 3000 ft
1500m à 5 km
500 à 1000 ft
800 à 1500m
200 à 500 ft
< 800m
< 200 ft
Symboles :   Orages  Brouillard  Fortes neiges  Fortes précipitations  Vent > 20 kt
SIGMETs :   Divers  Orages  Givrage  Turbulence  Onde Orograph.  Cendres Volcan.







- Altitude de l'aérodrome : 375 ft
- Code IATA : MST


EHBK - Maastricht Aachen

METARs EXPIRÉS :
  • 210255Z AUTO 33002KT 9999 BKN026 OVC033 19/17 Q1020
  • 210525Z AUTO 20004KT 150V220 9999 BKN021 OVC024 18/18 Q1021 NOSIG
  • 210455Z AUTO 34004KT 9999 FEW023 OVC028 19/17 Q1020 NOSIG

TAF TAF EHBK
Valide du 21 à 06h jusqu'au 22 à 12h UTC


210459Z 2106/2212 VRB03KT 9999 SCT025 BKN040
PROB30
TEMPO 2106/2112 6000 -DZ
BECMG 2206/2209 25005KT
Pas de NOTAMs connus pour ce terrain.



MET'MAP, la Météo Aéronautique d'un coup d'oeil ! - Copyright ORBIFLY Décembre 2007 - Disclaimer

ORBIFLY MET'MAP TEAM :

Programmation & Développement : Alexandra Zaïnal
Conception & Développement : Baudouin d'Aumeries
Co-Programmation & Développement : Marc-Olivier Méhu
Soutien technique & logistique : Manuel Goepfert

Contact : metmap@orbifly.com




SOURCES & CREDITS :

   NOAA